sensor_id;sensor_type;location;lat;lon;timestamp;temperature;humidity
19206;DHT22;59358;52.134;5.596;2023-01-19T00:02:25;2.60;99.90
19206;DHT22;59358;52.134;5.596;2023-01-19T00:04:51;2.60;99.90
19206;DHT22;59358;52.134;5.596;2023-01-19T00:07:18;2.70;99.90
19206;DHT22;59358;52.134;5.596;2023-01-19T00:09:45;2.70;99.90
19206;DHT22;59358;52.134;5.596;2023-01-19T00:12:12;2.70;99.90
19206;DHT22;59358;52.134;5.596;2023-01-19T00:14:40;2.80;99.90
19206;DHT22;59358;52.134;5.596;2023-01-19T00:17:07;2.80;99.90
19206;DHT22;59358;52.134;5.596;2023-01-19T00:19:33;2.80;99.90
19206;DHT22;59358;52.134;5.596;2023-01-19T00:22:00;2.80;99.90
19206;DHT22;59358;52.134;5.596;2023-01-19T00:24:31;2.80;99.90
19206;DHT22;59358;52.134;5.596;2023-01-19T00:26:57;2.80;99.90
19206;DHT22;59358;52.134;5.596;2023-01-19T00:29:27;2.80;99.90
19206;DHT22;59358;52.134;5.596;2023-01-19T00:31:56;2.80;99.90
19206;DHT22;59358;52.134;5.596;2023-01-19T00:34:23;2.80;99.90
19206;DHT22;59358;52.134;5.596;2023-01-19T00:36:50;2.80;99.90
19206;DHT22;59358;52.134;5.596;2023-01-19T00:39:17;2.80;99.90
19206;DHT22;59358;52.134;5.596;2023-01-19T00:41:44;2.80;99.90
19206;DHT22;59358;52.134;5.596;2023-01-19T00:44:28;2.80;99.90
19206;DHT22;59358;52.134;5.596;2023-01-19T00:46:56;2.90;99.90
19206;DHT22;59358;52.134;5.596;2023-01-19T00:49:23;3.00;99.90
19206;DHT22;59358;52.134;5.596;2023-01-19T00:51:50;3.10;99.90
19206;DHT22;59358;52.134;5.596;2023-01-19T00:54:16;3.00;99.90
19206;DHT22;59358;52.134;5.596;2023-01-19T00:56:43;2.80;99.90
19206;DHT22;59358;52.134;5.596;2023-01-19T00:59:10;2.60;99.90
19206;DHT22;59358;52.134;5.596;2023-01-19T01:01:37;2.50;99.90
19206;DHT22;59358;52.134;5.596;2023-01-19T01:04:06;2.40;99.90
19206;DHT22;59358;52.134;5.596;2023-01-19T01:06:32;2.40;99.90
19206;DHT22;59358;52.134;5.596;2023-01-19T01:09:00;2.40;99.90
19206;DHT22;59358;52.134;5.596;2023-01-19T01:11:36;2.40;99.90
19206;DHT22;59358;52.134;5.596;2023-01-19T01:14:04;2.40;99.90
19206;DHT22;59358;52.134;5.596;2023-01-19T01:16:31;2.40;99.90
19206;DHT22;59358;52.134;5.596;2023-01-19T01:18:57;2.40;99.90
19206;DHT22;59358;52.134;5.596;2023-01-19T01:21:26;2.40;99.90
19206;DHT22;59358;52.134;5.596;2023-01-19T01:23:53;2.40;99.90
19206;DHT22;59358;52.134;5.596;2023-01-19T01:26:20;2.50;99.90
19206;DHT22;59358;52.134;5.596;2023-01-19T01:28:47;2.50;99.90
19206;DHT22;59358;52.134;5.596;2023-01-19T01:31:15;2.50;99.90
19206;DHT22;59358;52.134;5.596;2023-01-19T01:33:42;2.50;99.90
19206;DHT22;59358;52.134;5.596;2023-01-19T01:36:09;2.40;99.90
19206;DHT22;59358;52.134;5.596;2023-01-19T01:38:37;2.40;99.90
19206;DHT22;59358;52.134;5.596;2023-01-19T01:41:04;2.40;99.90
19206;DHT22;59358;52.134;5.596;2023-01-19T01:43:46;2.40;99.90
19206;DHT22;59358;52.134;5.596;2023-01-19T01:46:14;2.40;99.90
19206;DHT22;59358;52.134;5.596;2023-01-19T01:48:45;2.30;99.90
19206;DHT22;59358;52.134;5.596;2023-01-19T01:51:17;2.20;99.90
19206;DHT22;59358;52.134;5.596;2023-01-19T01:54:04;2.10;99.90
19206;DHT22;59358;52.134;5.596;2023-01-19T01:56:35;2.00;99.90
19206;DHT22;59358;52.134;5.596;2023-01-19T01:59:05;1.90;99.90
19206;DHT22;59358;52.134;5.596;2023-01-19T02:01:33;1.90;99.90
19206;DHT22;59358;52.134;5.596;2023-01-19T02:04:17;1.80;99.90
19206;DHT22;59358;52.134;5.596;2023-01-19T02:06:45;1.90;99.90
19206;DHT22;59358;52.134;5.596;2023-01-19T02:09:34;1.90;99.90
19206;DHT22;59358;52.134;5.596;2023-01-19T02:12:20;2.00;99.90
19206;DHT22;59358;52.134;5.596;2023-01-19T02:15:05;1.90;99.90
19206;DHT22;59358;52.134;5.596;2023-01-19T02:17:32;1.90;99.90
19206;DHT22;59358;52.134;5.596;2023-01-19T02:19:59;2.00;99.90
19206;DHT22;59358;52.134;5.596;2023-01-19T02:22:32;2.00;99.90
19206;DHT22;59358;52.134;5.596;2023-01-19T02:25:02;2.00;99.90
19206;DHT22;59358;52.134;5.596;2023-01-19T02:27:31;2.00;99.90
19206;DHT22;59358;52.134;5.596;2023-01-19T02:29:58;2.00;99.90
19206;DHT22;59358;52.134;5.596;2023-01-19T02:32:25;2.00;99.90
19206;DHT22;59358;52.134;5.596;2023-01-19T02:34:51;2.10;99.90
19206;DHT22;59358;52.134;5.596;2023-01-19T02:37:19;2.10;99.90
19206;DHT22;59358;52.134;5.596;2023-01-19T02:39:49;2.10;99.90
19206;DHT22;59358;52.134;5.596;2023-01-19T02:42:21;2.20;99.90
19206;DHT22;59358;52.134;5.596;2023-01-19T02:44:52;2.20;99.90
19206;DHT22;59358;52.134;5.596;2023-01-19T02:47:19;2.30;99.90
19206;DHT22;59358;52.134;5.596;2023-01-19T02:49:56;2.40;99.90
19206;DHT22;59358;52.134;5.596;2023-01-19T02:52:23;2.50;99.90
19206;DHT22;59358;52.134;5.596;2023-01-19T02:55:00;2.60;99.90
19206;DHT22;59358;52.134;5.596;2023-01-19T02:57:50;2.80;99.90
19206;DHT22;59358;52.134;5.596;2023-01-19T03:00:29;2.90;99.90
19206;DHT22;59358;52.134;5.596;2023-01-19T03:03:08;3.00;99.90
19206;DHT22;59358;52.134;5.596;2023-01-19T03:05:51;3.10;99.90
19206;DHT22;59358;52.134;5.596;2023-01-19T03:08:30;3.20;99.90
19206;DHT22;59358;52.134;5.596;2023-01-19T03:11:01;3.20;99.90
19206;DHT22;59358;52.134;5.596;2023-01-19T03:13:36;3.30;99.90
19206;DHT22;59358;52.134;5.596;2023-01-19T03:16:12;3.40;99.90
19206;DHT22;59358;52.134;5.596;2023-01-19T03:18:42;3.50;99.90
19206;DHT22;59358;52.134;5.596;2023-01-19T03:21:12;3.50;99.90
19206;DHT22;59358;52.134;5.596;2023-01-19T03:23:41;3.50;99.90
19206;DHT22;59358;52.134;5.596;2023-01-19T03:26:14;3.50;99.90
19206;DHT22;59358;52.134;5.596;2023-01-19T03:28:44;3.50;99.90
19206;DHT22;59358;52.134;5.596;2023-01-19T03:31:15;3.50;99.90
19206;DHT22;59358;52.134;5.596;2023-01-19T03:33:47;3.50;99.90
19206;DHT22;59358;52.134;5.596;2023-01-19T03:36:19;3.50;99.90
19206;DHT22;59358;52.134;5.596;2023-01-19T03:38:48;3.50;99.90
19206;DHT22;59358;52.134;5.596;2023-01-19T03:41:18;3.50;99.90
19206;DHT22;59358;52.134;5.596;2023-01-19T03:43:48;3.50;99.90
19206;DHT22;59358;52.134;5.596;2023-01-19T03:46:17;3.50;99.90
19206;DHT22;59358;52.134;5.596;2023-01-19T03:48:44;3.50;99.90
19206;DHT22;59358;52.134;5.596;2023-01-19T03:51:12;3.50;99.90
19206;DHT22;59358;52.134;5.596;2023-01-19T03:53:39;3.50;99.90
19206;DHT22;59358;52.134;5.596;2023-01-19T03:56:16;3.50;99.90
19206;DHT22;59358;52.134;5.596;2023-01-19T03:58:43;3.50;99.90
19206;DHT22;59358;52.134;5.596;2023-01-19T04:01:11;3.50;99.90
19206;DHT22;59358;52.134;5.596;2023-01-19T04:03:38;3.50;99.90
19206;DHT22;59358;52.134;5.596;2023-01-19T04:06:05;3.50;99.90
19206;DHT22;59358;52.134;5.596;2023-01-19T04:08:33;3.50;99.90
19206;DHT22;59358;52.134;5.596;2023-01-19T04:10:59;3.50;99.90
19206;DHT22;59358;52.134;5.596;2023-01-19T04:13:27;3.50;99.90
19206;DHT22;59358;52.134;5.596;2023-01-19T04:15:58;3.50;99.90
19206;DHT22;59358;52.134;5.596;2023-01-19T04:18:27;3.40;99.90
19206;DHT22;59358;52.134;5.596;2023-01-19T04:20:58;3.30;99.90
19206;DHT22;59358;52.134;5.596;2023-01-19T04:23:25;3.30;99.90
19206;DHT22;59358;52.134;5.596;2023-01-19T04:25:56;3.20;99.90
19206;DHT22;59358;52.134;5.596;2023-01-19T04:28:23;3.10;99.90
19206;DHT22;59358;52.134;5.596;2023-01-19T04:30:50;3.00;99.90
19206;DHT22;59358;52.134;5.596;2023-01-19T04:33:17;3.00;99.90
19206;DHT22;59358;52.134;5.596;2023-01-19T04:35:46;2.90;99.90
19206;DHT22;59358;52.134;5.596;2023-01-19T04:38:14;2.90;99.90
19206;DHT22;59358;52.134;5.596;2023-01-19T04:40:40;2.80;99.90
19206;DHT22;59358;52.134;5.596;2023-01-19T04:43:07;2.80;99.90
19206;DHT22;59358;52.134;5.596;2023-01-19T04:45:34;2.70;99.90
19206;DHT22;59358;52.134;5.596;2023-01-19T04:48:03;2.70;99.90
19206;DHT22;59358;52.134;5.596;2023-01-19T04:50:31;2.70;99.90
19206;DHT22;59358;52.134;5.596;2023-01-19T04:52:59;2.60;99.90
19206;DHT22;59358;52.134;5.596;2023-01-19T04:55:26;2.60;99.90
19206;DHT22;59358;52.134;5.596;2023-01-19T04:57:53;2.60;99.90
19206;DHT22;59358;52.134;5.596;2023-01-19T05:00:20;2.50;99.90
19206;DHT22;59358;52.134;5.596;2023-01-19T05:02:48;2.50;99.90
19206;DHT22;59358;52.134;5.596;2023-01-19T05:05:15;2.50;99.90
19206;DHT22;59358;52.134;5.596;2023-01-19T05:07:42;2.50;99.90
19206;DHT22;59358;52.134;5.596;2023-01-19T05:10:10;2.50;99.90
19206;DHT22;59358;52.134;5.596;2023-01-19T05:12:37;2.40;99.90
19206;DHT22;59358;52.134;5.596;2023-01-19T05:15:05;2.40;99.90
19206;DHT22;59358;52.134;5.596;2023-01-19T05:17:34;2.40;99.90
19206;DHT22;59358;52.134;5.596;2023-01-19T05:20:00;2.40;99.90
19206;DHT22;59358;52.134;5.596;2023-01-19T05:22:28;2.40;99.90
19206;DHT22;59358;52.134;5.596;2023-01-19T05:24:55;2.40;99.90
19206;DHT22;59358;52.134;5.596;2023-01-19T05:27:24;2.40;99.90
19206;DHT22;59358;52.134;5.596;2023-01-19T05:29:51;2.40;99.90
19206;DHT22;59358;52.134;5.596;2023-01-19T05:32:17;2.50;99.90
19206;DHT22;59358;52.134;5.596;2023-01-19T05:34:45;2.50;99.90
19206;DHT22;59358;52.134;5.596;2023-01-19T05:37:11;2.40;99.90
19206;DHT22;59358;52.134;5.596;2023-01-19T05:39:38;2.40;99.90
19206;DHT22;59358;52.134;5.596;2023-01-19T05:42:05;2.40;99.90
19206;DHT22;59358;52.134;5.596;2023-01-19T05:44:33;2.50;99.90
19206;DHT22;59358;52.134;5.596;2023-01-19T05:47:00;2.50;99.90
19206;DHT22;59358;52.134;5.596;2023-01-19T05:49:27;2.50;99.90
19206;DHT22;59358;52.134;5.596;2023-01-19T05:51:54;2.60;99.90
19206;DHT22;59358;52.134;5.596;2023-01-19T05:54:23;2.70;99.90
19206;DHT22;59358;52.134;5.596;2023-01-19T05:56:50;2.60;99.90
19206;DHT22;59358;52.134;5.596;2023-01-19T05:59:17;2.70;99.90
19206;DHT22;59358;52.134;5.596;2023-01-19T06:01:49;2.80;99.90
19206;DHT22;59358;52.134;5.596;2023-01-19T06:04:16;2.90;99.90
19206;DHT22;59358;52.134;5.596;2023-01-19T06:06:43;2.90;99.90
19206;DHT22;59358;52.134;5.596;2023-01-19T06:09:10;2.90;99.90
19206;DHT22;59358;52.134;5.596;2023-01-19T06:11:37;2.90;99.90
19206;DHT22;59358;52.134;5.596;2023-01-19T06:14:04;2.90;99.90
19206;DHT22;59358;52.134;5.596;2023-01-19T06:16:31;3.00;99.90
19206;DHT22;59358;52.134;5.596;2023-01-19T06:18:59;3.00;99.90
19206;DHT22;59358;52.134;5.596;2023-01-19T06:21:26;3.00;99.90
19206;DHT22;59358;52.134;5.596;2023-01-19T06:23:52;3.00;99.90
19206;DHT22;59358;52.134;5.596;2023-01-19T06:26:19;3.00;99.90
19206;DHT22;59358;52.134;5.596;2023-01-19T06:28:46;3.00;99.90
19206;DHT22;59358;52.134;5.596;2023-01-19T06:31:13;2.90;99.90
19206;DHT22;59358;52.134;5.596;2023-01-19T06:33:40;2.90;99.90
19206;DHT22;59358;52.134;5.596;2023-01-19T06:36:08;2.90;99.90
19206;DHT22;59358;52.134;5.596;2023-01-19T06:38:35;3.00;99.90
19206;DHT22;59358;52.134;5.596;2023-01-19T06:41:02;3.00;99.90
19206;DHT22;59358;52.134;5.596;2023-01-19T06:43:30;3.00;99.90
19206;DHT22;59358;52.134;5.596;2023-01-19T06:45:56;3.10;99.90
19206;DHT22;59358;52.134;5.596;2023-01-19T06:48:25;3.10;99.90
19206;DHT22;59358;52.134;5.596;2023-01-19T06:50:51;3.20;99.90
19206;DHT22;59358;52.134;5.596;2023-01-19T06:53:20;3.20;99.90
19206;DHT22;59358;52.134;5.596;2023-01-19T06:55:47;3.30;99.90
19206;DHT22;59358;52.134;5.596;2023-01-19T06:58:13;3.30;99.90
19206;DHT22;59358;52.134;5.596;2023-01-19T07:00:40;3.40;99.90
19206;DHT22;59358;52.134;5.596;2023-01-19T07:03:07;3.50;99.90
19206;DHT22;59358;52.134;5.596;2023-01-19T07:05:35;3.50;99.90
19206;DHT22;59358;52.134;5.596;2023-01-19T07:08:02;3.70;99.90
19206;DHT22;59358;52.134;5.596;2023-01-19T07:10:30;3.80;99.90
19206;DHT22;59358;52.134;5.596;2023-01-19T07:12:58;3.80;99.90
19206;DHT22;59358;52.134;5.596;2023-01-19T07:15:25;3.90;99.90
19206;DHT22;59358;52.134;5.596;2023-01-19T07:17:52;3.90;99.90
19206;DHT22;59358;52.134;5.596;2023-01-19T07:20:18;3.80;99.90
19206;DHT22;59358;52.134;5.596;2023-01-19T07:22:45;3.70;99.90
19206;DHT22;59358;52.134;5.596;2023-01-19T07:25:13;3.60;99.90
19206;DHT22;59358;52.134;5.596;2023-01-19T07:27:41;3.50;99.90
19206;DHT22;59358;52.134;5.596;2023-01-19T07:30:10;3.40;99.90
19206;DHT22;59358;52.134;5.596;2023-01-19T07:32:38;3.30;99.90
19206;DHT22;59358;52.134;5.596;2023-01-19T07:35:07;3.20;99.90
19206;DHT22;59358;52.134;5.596;2023-01-19T07:37:34;3.20;99.90
19206;DHT22;59358;52.134;5.596;2023-01-19T07:40:04;3.10;99.90
19206;DHT22;59358;52.134;5.596;2023-01-19T07:42:31;3.10;99.90
19206;DHT22;59358;52.134;5.596;2023-01-19T07:44:59;3.00;99.90
19206;DHT22;59358;52.134;5.596;2023-01-19T07:47:26;2.90;99.90
19206;DHT22;59358;52.134;5.596;2023-01-19T07:49:53;2.80;99.90
19206;DHT22;59358;52.134;5.596;2023-01-19T07:52:20;2.80;99.90
19206;DHT22;59358;52.134;5.596;2023-01-19T07:54:47;2.90;99.90
19206;DHT22;59358;52.134;5.596;2023-01-19T07:57:15;2.90;99.90
19206;DHT22;59358;52.134;5.596;2023-01-19T07:59:42;2.90;99.90
19206;DHT22;59358;52.134;5.596;2023-01-19T08:02:11;2.80;99.90
19206;DHT22;59358;52.134;5.596;2023-01-19T08:04:38;2.80;99.90
19206;DHT22;59358;52.134;5.596;2023-01-19T08:07:04;2.90;99.90
19206;DHT22;59358;52.134;5.596;2023-01-19T08:09:32;2.90;99.90
19206;DHT22;59358;52.134;5.596;2023-01-19T08:11:59;3.00;99.90
19206;DHT22;59358;52.134;5.596;2023-01-19T08:14:26;3.00;99.90
19206;DHT22;59358;52.134;5.596;2023-01-19T08:16:53;3.10;99.90
19206;DHT22;59358;52.134;5.596;2023-01-19T08:19:21;3.10;99.90
19206;DHT22;59358;52.134;5.596;2023-01-19T08:21:48;3.10;99.90
19206;DHT22;59358;52.134;5.596;2023-01-19T08:24:17;3.20;99.90
19206;DHT22;59358;52.134;5.596;2023-01-19T08:26:46;3.20;99.90
19206;DHT22;59358;52.134;5.596;2023-01-19T08:29:12;3.20;99.90
19206;DHT22;59358;52.134;5.596;2023-01-19T08:31:39;3.30;99.90
19206;DHT22;59358;52.134;5.596;2023-01-19T08:34:07;3.40;99.90
19206;DHT22;59358;52.134;5.596;2023-01-19T08:36:35;3.40;99.90
19206;DHT22;59358;52.134;5.596;2023-01-19T08:39:02;3.30;99.90
19206;DHT22;59358;52.134;5.596;2023-01-19T08:41:29;3.30;99.90
19206;DHT22;59358;52.134;5.596;2023-01-19T08:43:57;3.20;99.90
19206;DHT22;59358;52.134;5.596;2023-01-19T08:46:23;3.10;99.90
19206;DHT22;59358;52.134;5.596;2023-01-19T08:48:50;3.10;99.90
19206;DHT22;59358;52.134;5.596;2023-01-19T08:51:17;3.10;99.90
19206;DHT22;59358;52.134;5.596;2023-01-19T08:53:46;3.10;99.90
19206;DHT22;59358;52.134;5.596;2023-01-19T08:56:13;3.10;99.90
19206;DHT22;59358;52.134;5.596;2023-01-19T08:58:41;3.10;99.90
19206;DHT22;59358;52.134;5.596;2023-01-19T09:01:09;3.10;99.90
19206;DHT22;59358;52.134;5.596;2023-01-19T09:03:38;3.10;99.90
19206;DHT22;59358;52.134;5.596;2023-01-19T09:06:05;3.20;99.90
19206;DHT22;59358;52.134;5.596;2023-01-19T09:08:32;3.30;99.90
19206;DHT22;59358;52.134;5.596;2023-01-19T09:11:00;3.30;99.90
19206;DHT22;59358;52.134;5.596;2023-01-19T09:13:27;3.30;99.90
19206;DHT22;59358;52.134;5.596;2023-01-19T09:15:54;3.40;99.90
19206;DHT22;59358;52.134;5.596;2023-01-19T09:18:22;3.40;99.90
19206;DHT22;59358;52.134;5.596;2023-01-19T09:20:50;3.40;99.90
19206;DHT22;59358;52.134;5.596;2023-01-19T09:23:19;3.50;99.90
19206;DHT22;59358;52.134;5.596;2023-01-19T09:25:47;3.40;99.90
19206;DHT22;59358;52.134;5.596;2023-01-19T09:28:16;3.40;99.90
19206;DHT22;59358;52.134;5.596;2023-01-19T09:30:44;3.40;99.90
19206;DHT22;59358;52.134;5.596;2023-01-19T09:33:15;3.50;99.90
19206;DHT22;59358;52.134;5.596;2023-01-19T09:35:44;3.60;99.90
19206;DHT22;59358;52.134;5.596;2023-01-19T09:38:13;3.60;99.90
19206;DHT22;59358;52.134;5.596;2023-01-19T09:40:42;3.60;99.90
19206;DHT22;59358;52.134;5.596;2023-01-19T09:43:20;3.70;99.90
19206;DHT22;59358;52.134;5.596;2023-01-19T09:45:55;3.70;99.90
19206;DHT22;59358;52.134;5.596;2023-01-19T09:48:29;3.80;99.90
19206;DHT22;59358;52.134;5.596;2023-01-19T09:51:01;3.90;99.90
19206;DHT22;59358;52.134;5.596;2023-01-19T09:53:37;4.00;99.90
19206;DHT22;59358;52.134;5.596;2023-01-19T09:56:11;3.90;99.90
19206;DHT22;59358;52.134;5.596;2023-01-19T09:58:40;3.90;99.90
19206;DHT22;59358;52.134;5.596;2023-01-19T10:01:15;3.90;99.90
19206;DHT22;59358;52.134;5.596;2023-01-19T10:03:49;4.10;99.90
19206;DHT22;59358;52.134;5.596;2023-01-19T10:06:17;4.20;99.90
19206;DHT22;59358;52.134;5.596;2023-01-19T10:08:49;4.30;99.90
19206;DHT22;59358;52.134;5.596;2023-01-19T10:11:27;4.40;99.90
19206;DHT22;59358;52.134;5.596;2023-01-19T10:13:58;4.50;99.90
19206;DHT22;59358;52.134;5.596;2023-01-19T10:16:29;4.60;99.90
19206;DHT22;59358;52.134;5.596;2023-01-19T10:19:01;4.70;99.90
19206;DHT22;59358;52.134;5.596;2023-01-19T10:21:41;4.80;99.90
19206;DHT22;59358;52.134;5.596;2023-01-19T10:24:14;4.90;99.90
19206;DHT22;59358;52.134;5.596;2023-01-19T10:26:47;5.00;99.90
19206;DHT22;59358;52.134;5.596;2023-01-19T10:29:21;5.10;99.90
19206;DHT22;59358;52.134;5.596;2023-01-19T10:31:52;5.10;99.90
19206;DHT22;59358;52.134;5.596;2023-01-19T10:34:20;5.20;99.90
19206;DHT22;59358;52.134;5.596;2023-01-19T10:36:57;5.20;99.90
19206;DHT22;59358;52.134;5.596;2023-01-19T10:39:25;5.40;99.90
19206;DHT22;59358;52.134;5.596;2023-01-19T10:41:53;5.30;99.90
19206;DHT22;59358;52.134;5.596;2023-01-19T10:44:24;5.30;99.90
19206;DHT22;59358;52.134;5.596;2023-01-19T10:46:52;5.40;99.90
19206;DHT22;59358;52.134;5.596;2023-01-19T10:49:26;5.40;99.90
19206;DHT22;59358;52.134;5.596;2023-01-19T10:51:54;5.40;99.90
19206;DHT22;59358;52.134;5.596;2023-01-19T10:54:22;5.50;99.90
19206;DHT22;59358;52.134;5.596;2023-01-19T10:56:51;5.50;99.90
19206;DHT22;59358;52.134;5.596;2023-01-19T10:59:34;5.60;99.90
19206;DHT22;59358;52.134;5.596;2023-01-19T11:04:45;5.90;99.90
19206;DHT22;59358;52.134;5.596;2023-01-19T11:07:16;6.00;99.90
19206;DHT22;59358;52.134;5.596;2023-01-19T11:09:45;6.00;99.90
19206;DHT22;59358;52.134;5.596;2023-01-19T11:12:16;6.00;99.90
19206;DHT22;59358;52.134;5.596;2023-01-19T11:14:46;6.00;99.90
19206;DHT22;59358;52.134;5.596;2023-01-19T11:17:19;6.10;99.90
19206;DHT22;59358;52.134;5.596;2023-01-19T11:19:55;6.20;99.90
19206;DHT22;59358;52.134;5.596;2023-01-19T11:22:26;6.30;99.90
19206;DHT22;59358;52.134;5.596;2023-01-19T11:24:57;6.30;99.90
19206;DHT22;59358;52.134;5.596;2023-01-19T11:27:25;6.30;99.90
19206;DHT22;59358;52.134;5.596;2023-01-19T11:30:00;6.40;99.90
19206;DHT22;59358;52.134;5.596;2023-01-19T11:32:30;6.50;99.90
19206;DHT22;59358;52.134;5.596;2023-01-19T11:35:00;6.60;99.90
19206;DHT22;59358;52.134;5.596;2023-01-19T11:37:29;6.60;99.90
19206;DHT22;59358;52.134;5.596;2023-01-19T11:39:59;6.70;99.90
19206;DHT22;59358;52.134;5.596;2023-01-19T11:42:29;6.70;99.90
19206;DHT22;59358;52.134;5.596;2023-01-19T11:45:02;6.80;99.90
19206;DHT22;59358;52.134;5.596;2023-01-19T11:47:33;6.90;99.90
19206;DHT22;59358;52.134;5.596;2023-01-19T11:50:06;6.80;99.90
19206;DHT22;59358;52.134;5.596;2023-01-19T11:52:41;6.90;99.90
19206;DHT22;59358;52.134;5.596;2023-01-19T11:55:16;6.70;99.90
19206;DHT22;59358;52.134;5.596;2023-01-19T11:57:45;6.60;99.90
19206;DHT22;59358;52.134;5.596;2023-01-19T12:00:23;6.40;99.90
19206;DHT22;59358;52.134;5.596;2023-01-19T12:02:54;6.10;99.90
19206;DHT22;59358;52.134;5.596;2023-01-19T12:05:25;6.00;99.90
19206;DHT22;59358;52.134;5.596;2023-01-19T12:07:56;6.00;99.90
19206;DHT22;59358;52.134;5.596;2023-01-19T12:10:27;6.00;99.90
19206;DHT22;59358;52.134;5.596;2023-01-19T12:12:55;6.20;99.90
19206;DHT22;59358;52.134;5.596;2023-01-19T12:15:29;6.20;99.90
19206;DHT22;59358;52.134;5.596;2023-01-19T12:17:59;6.20;99.90
19206;DHT22;59358;52.134;5.596;2023-01-19T12:20:30;6.10;99.90
19206;DHT22;59358;52.134;5.596;2023-01-19T12:23:06;6.20;99.90
19206;DHT22;59358;52.134;5.596;2023-01-19T12:25:47;6.10;99.90
19206;DHT22;59358;52.134;5.596;2023-01-19T12:28:17;6.00;99.90
19206;DHT22;59358;52.134;5.596;2023-01-19T12:30:50;5.90;99.90
19206;DHT22;59358;52.134;5.596;2023-01-19T12:33:22;5.80;99.90
19206;DHT22;59358;52.134;5.596;2023-01-19T12:35:59;5.70;99.90
19206;DHT22;59358;52.134;5.596;2023-01-19T12:38:39;5.70;99.90
19206;DHT22;59358;52.134;5.596;2023-01-19T12:41:28;5.80;99.90
19206;DHT22;59358;52.134;5.596;2023-01-19T12:44:21;5.60;99.90
19206;DHT22;59358;52.134;5.596;2023-01-19T12:46:53;5.60;99.90
19206;DHT22;59358;52.134;5.596;2023-01-19T12:49:27;5.40;99.90
19206;DHT22;59358;52.134;5.596;2023-01-19T12:52:21;5.40;99.90
19206;DHT22;59358;52.134;5.596;2023-01-19T12:54:59;5.50;99.90
19206;DHT22;59358;52.134;5.596;2023-01-19T12:57:30;5.60;99.90
19206;DHT22;59358;52.134;5.596;2023-01-19T12:59:59;5.60;99.90
19206;DHT22;59358;52.134;5.596;2023-01-19T13:02:41;5.50;99.90
19206;DHT22;59358;52.134;5.596;2023-01-19T13:08:25;5.60;99.90
19206;DHT22;59358;52.134;5.596;2023-01-19T13:11:18;5.70;99.90
19206;DHT22;59358;52.134;5.596;2023-01-19T13:17:04;5.90;99.90
19206;DHT22;59358;52.134;5.596;2023-01-19T13:19:40;6.10;99.90
19206;DHT22;59358;52.134;5.596;2023-01-19T13:25:30;6.20;99.90
19206;DHT22;59358;52.134;5.596;2023-01-19T13:27:59;6.40;99.90
19206;DHT22;59358;52.134;5.596;2023-01-19T13:30:27;6.60;99.90
19206;DHT22;59358;52.134;5.596;2023-01-19T13:32:59;6.70;99.90
19206;DHT22;59358;52.134;5.596;2023-01-19T13:35:29;6.80;99.90
19206;DHT22;59358;52.134;5.596;2023-01-19T13:37:57;6.80;99.90
19206;DHT22;59358;52.134;5.596;2023-01-19T13:40:30;6.80;99.90
19206;DHT22;59358;52.134;5.596;2023-01-19T13:42:59;6.50;99.90
19206;DHT22;59358;52.134;5.596;2023-01-19T13:45:29;6.60;99.90
19206;DHT22;59358;52.134;5.596;2023-01-19T13:47:59;6.60;99.90
19206;DHT22;59358;52.134;5.596;2023-01-19T13:50:29;6.70;99.90
19206;DHT22;59358;52.134;5.596;2023-01-19T13:52:57;6.80;99.90
19206;DHT22;59358;52.134;5.596;2023-01-19T13:55:25;6.80;99.90
19206;DHT22;59358;52.134;5.596;2023-01-19T13:57:53;6.70;99.90
19206;DHT22;59358;52.134;5.596;2023-01-19T14:00:21;6.40;99.90
19206;DHT22;59358;52.134;5.596;2023-01-19T14:02:57;6.30;99.90
19206;DHT22;59358;52.134;5.596;2023-01-19T14:05:27;6.20;99.90
19206;DHT22;59358;52.134;5.596;2023-01-19T14:08:04;6.00;99.90
19206;DHT22;59358;52.134;5.596;2023-01-19T14:10:33;6.00;99.90
19206;DHT22;59358;52.134;5.596;2023-01-19T14:13:02;5.80;99.90
19206;DHT22;59358;52.134;5.596;2023-01-19T14:15:31;5.80;99.90
19206;DHT22;59358;52.134;5.596;2023-01-19T14:18:10;5.70;99.90
19206;DHT22;59358;52.134;5.596;2023-01-19T14:20:37;5.60;99.90
19206;DHT22;59358;52.134;5.596;2023-01-19T14:23:28;5.50;99.90
19206;DHT22;59358;52.134;5.596;2023-01-19T14:25:53;5.50;99.90
19206;DHT22;59358;52.134;5.596;2023-01-19T14:28:33;5.40;99.90
19206;DHT22;59358;52.134;5.596;2023-01-19T14:31:18;5.30;99.90
19206;DHT22;59358;52.134;5.596;2023-01-19T14:33:47;5.30;99.90
19206;DHT22;59358;52.134;5.596;2023-01-19T14:36:28;5.30;99.90
19206;DHT22;59358;52.134;5.596;2023-01-19T14:39:00;5.20;99.90
19206;DHT22;59358;52.134;5.596;2023-01-19T14:41:34;5.20;99.90
19206;DHT22;59358;52.134;5.596;2023-01-19T14:44:05;5.20;99.90
19206;DHT22;59358;52.134;5.596;2023-01-19T14:46:33;5.10;99.90
19206;DHT22;59358;52.134;5.596;2023-01-19T14:49:02;5.10;99.90
19206;DHT22;59358;52.134;5.596;2023-01-19T14:51:30;5.10;99.90
19206;DHT22;59358;52.134;5.596;2023-01-19T14:54:00;5.10;99.90
19206;DHT22;59358;52.134;5.596;2023-01-19T14:56:28;5.00;99.90
19206;DHT22;59358;52.134;5.596;2023-01-19T14:58:56;4.90;99.90
19206;DHT22;59358;52.134;5.596;2023-01-19T15:01:25;4.90;99.90
19206;DHT22;59358;52.134;5.596;2023-01-19T15:03:52;4.80;99.90
19206;DHT22;59358;52.134;5.596;2023-01-19T15:06:21;4.90;99.90
19206;DHT22;59358;52.134;5.596;2023-01-19T15:08:48;4.90;99.90
19206;DHT22;59358;52.134;5.596;2023-01-19T15:11:21;4.90;99.90
19206;DHT22;59358;52.134;5.596;2023-01-19T15:13:49;4.90;99.90
19206;DHT22;59358;52.134;5.596;2023-01-19T15:16:17;4.90;99.90
19206;DHT22;59358;52.134;5.596;2023-01-19T15:18:44;4.90;99.90
19206;DHT22;59358;52.134;5.596;2023-01-19T15:21:13;4.80;99.90
19206;DHT22;59358;52.134;5.596;2023-01-19T15:23:40;4.70;99.90
19206;DHT22;59358;52.134;5.596;2023-01-19T15:26:14;4.70;99.90
19206;DHT22;59358;52.134;5.596;2023-01-19T15:28:43;4.60;99.90
19206;DHT22;59358;52.134;5.596;2023-01-19T15:31:13;4.60;99.90
19206;DHT22;59358;52.134;5.596;2023-01-19T15:33:41;4.50;99.90
19206;DHT22;59358;52.134;5.596;2023-01-19T15:36:11;4.40;99.90
19206;DHT22;59358;52.134;5.596;2023-01-19T15:38:39;4.40;99.90
19206;DHT22;59358;52.134;5.596;2023-01-19T15:41:11;4.30;99.90
19206;DHT22;59358;52.134;5.596;2023-01-19T15:43:39;4.20;99.90
19206;DHT22;59358;52.134;5.596;2023-01-19T15:46:08;4.10;99.90
19206;DHT22;59358;52.134;5.596;2023-01-19T15:48:36;4.10;99.90
19206;DHT22;59358;52.134;5.596;2023-01-19T15:51:03;4.00;99.90
19206;DHT22;59358;52.134;5.596;2023-01-19T15:53:31;3.90;99.90
19206;DHT22;59358;52.134;5.596;2023-01-19T15:55:58;3.80;99.90
19206;DHT22;59358;52.134;5.596;2023-01-19T15:58:25;3.80;99.90
19206;DHT22;59358;52.134;5.596;2023-01-19T16:00:53;3.60;99.90
19206;DHT22;59358;52.134;5.596;2023-01-19T16:03:21;3.60;99.90
19206;DHT22;59358;52.134;5.596;2023-01-19T16:05:48;3.50;99.90
19206;DHT22;59358;52.134;5.596;2023-01-19T16:08:15;3.50;99.90
19206;DHT22;59358;52.134;5.596;2023-01-19T16:10:42;3.40;99.90
19206;DHT22;59358;52.134;5.596;2023-01-19T16:13:10;3.30;99.90
19206;DHT22;59358;52.134;5.596;2023-01-19T16:15:38;3.20;99.90